METAR and TAF’s


Available data for KLBB from the past 2 hours
LUBBOCK, TX
Metar
KLBB 181453Z 21009KT 10SM OVC015 23/18 A3010 RMK AO2 SLP144 OCNL BINOVC OHD AND DSNT SE T02280183 51003

14:53 UTC

Wind: 210° 9kt

Visibility: 10 SM

Sky: OVC 1500 ft

Temp: 23 deg C / 73.4 deg F

Dewpoint: 18 deg C / 64.4 deg F

Pressure: 30.1 inHg

TAF
KLBB 181120Z 1812/1912 19011KT P6SM SCT008 OVC012 FM181700 20011KT P6SM SCT040
Available data for KCVN from the past 2 hours
CLOVIS MUNI, NM
Metar
KCVN 181456Z AUTO 18012KT 4SM BR OVC005 18/18 A3013 RMK AO2 SLP171 T01830178 50001

14:56 UTC

Wind: 180° 12kt

Visibility: 4 SM

Sky: OVC 500 ft

Temp: 18 deg C / 64.4 deg F

Dewpoint: 18 deg C / 64.4 deg F

Pressure: 30.13 inHg